sensor_id;sensor_type;location;lat;lon;timestamp;P1;durP1;ratioP1;P2;durP2;ratioP2
49514;SDS011;35415;47.870;16.058;2023-09-07T00:01:16;4.53;;;3.90;;
49514;SDS011;35415;47.870;16.058;2023-09-07T00:03:43;6.80;;;4.60;;
49514;SDS011;35415;47.870;16.058;2023-09-07T00:06:13;5.65;;;4.20;;
49514;SDS011;35415;47.870;16.058;2023-09-07T00:08:43;6.85;;;4.30;;
49514;SDS011;35415;47.870;16.058;2023-09-07T00:11:11;5.65;;;4.50;;
49514;SDS011;35415;47.870;16.058;2023-09-07T00:13:41;9.05;;;4.20;;
49514;SDS011;35415;47.870;16.058;2023-09-07T00:16:11;8.55;;;3.90;;
49514;SDS011;35415;47.870;16.058;2023-09-07T00:18:41;8.60;;;4.10;;
49514;SDS011;35415;47.870;16.058;2023-09-07T00:21:08;4.60;;;4.10;;
49514;SDS011;35415;47.870;16.058;2023-09-07T00:23:35;5.05;;;3.90;;
49514;SDS011;35415;47.870;16.058;2023-09-07T00:26:06;5.10;;;4.15;;
49514;SDS011;35415;47.870;16.058;2023-09-07T00:28:41;6.00;;;4.67;;
49514;SDS011;35415;47.870;16.058;2023-09-07T00:31:10;6.10;;;4.18;;
49514;SDS011;35415;47.870;16.058;2023-09-07T00:33:41;7.30;;;4.22;;
49514;SDS011;35415;47.870;16.058;2023-09-07T00:36:08;6.65;;;4.43;;
49514;SDS011;35415;47.870;16.058;2023-09-07T00:38:35;6.32;;;4.05;;
49514;SDS011;35415;47.870;16.058;2023-09-07T00:41:06;7.32;;;4.70;;
49514;SDS011;35415;47.870;16.058;2023-09-07T00:43:33;5.68;;;3.90;;
49514;SDS011;35415;47.870;16.058;2023-09-07T00:46:01;12.02;;;5.38;;
49514;SDS011;35415;47.870;16.058;2023-09-07T00:48:31;5.32;;;3.85;;
49514;SDS011;35415;47.870;16.058;2023-09-07T00:50:59;4.57;;;3.92;;
49514;SDS011;35415;47.870;16.058;2023-09-07T00:53:26;5.30;;;3.88;;
49514;SDS011;35415;47.870;16.058;2023-09-07T00:55:54;6.10;;;4.13;;
49514;SDS011;35415;47.870;16.058;2023-09-07T00:58:23;4.80;;;3.75;;
49514;SDS011;35415;47.870;16.058;2023-09-07T01:00:50;5.47;;;4.15;;
49514;SDS011;35415;47.870;16.058;2023-09-07T01:03:18;9.02;;;4.70;;
49514;SDS011;35415;47.870;16.058;2023-09-07T01:05:56;6.85;;;4.43;;
49514;SDS011;35415;47.870;16.058;2023-09-07T01:08:31;5.68;;;4.00;;
49514;SDS011;35415;47.870;16.058;2023-09-07T01:11:12;7.05;;;4.00;;
49514;SDS011;35415;47.870;16.058;2023-09-07T01:13:41;6.32;;;4.28;;
49514;SDS011;35415;47.870;16.058;2023-09-07T01:16:12;5.38;;;4.53;;
49514;SDS011;35415;47.870;16.058;2023-09-07T01:18:41;7.90;;;4.40;;
49514;SDS011;35415;47.870;16.058;2023-09-07T01:21:10;6.75;;;4.65;;
49514;SDS011;35415;47.870;16.058;2023-09-07T01:23:43;5.00;;;4.32;;
49514;SDS011;35415;47.870;16.058;2023-09-07T01:26:11;6.55;;;4.55;;
49514;SDS011;35415;47.870;16.058;2023-09-07T01:28:41;7.97;;;4.60;;
49514;SDS011;35415;47.870;16.058;2023-09-07T01:31:08;5.35;;;4.13;;
49514;SDS011;35415;47.870;16.058;2023-09-07T01:33:36;6.10;;;4.38;;
49514;SDS011;35415;47.870;16.058;2023-09-07T01:36:06;4.90;;;3.88;;
49514;SDS011;35415;47.870;16.058;2023-09-07T01:38:33;5.40;;;4.28;;
49514;SDS011;35415;47.870;16.058;2023-09-07T01:41:02;5.97;;;4.32;;
49514;SDS011;35415;47.870;16.058;2023-09-07T01:43:33;5.47;;;4.00;;
49514;SDS011;35415;47.870;16.058;2023-09-07T01:46:01;6.30;;;4.47;;
49514;SDS011;35415;47.870;16.058;2023-09-07T01:48:31;6.43;;;4.15;;
49514;SDS011;35415;47.870;16.058;2023-09-07T01:50:59;5.57;;;3.90;;
49514;SDS011;35415;47.870;16.058;2023-09-07T01:53:27;5.07;;;4.22;;
49514;SDS011;35415;47.870;16.058;2023-09-07T01:55:54;4.65;;;3.88;;
49514;SDS011;35415;47.870;16.058;2023-09-07T01:58:26;8.55;;;3.88;;
49514;SDS011;35415;47.870;16.058;2023-09-07T02:00:56;4.70;;;3.47;;
49514;SDS011;35415;47.870;16.058;2023-09-07T02:03:25;4.75;;;4.00;;
49514;SDS011;35415;47.870;16.058;2023-09-07T02:05:52;4.85;;;4.05;;
49514;SDS011;35415;47.870;16.058;2023-09-07T02:08:22;5.53;;;4.28;;
49514;SDS011;35415;47.870;16.058;2023-09-07T02:10:49;4.18;;;3.75;;
49514;SDS011;35415;47.870;16.058;2023-09-07T02:13:16;6.05;;;3.95;;
49514;SDS011;35415;47.870;16.058;2023-09-07T02:15:47;6.35;;;4.57;;
49514;SDS011;35415;47.870;16.058;2023-09-07T02:18:14;7.05;;;4.28;;
49514;SDS011;35415;47.870;16.058;2023-09-07T02:20:45;8.95;;;4.13;;
49514;SDS011;35415;47.870;16.058;2023-09-07T02:23:12;6.38;;;4.20;;
49514;SDS011;35415;47.870;16.058;2023-09-07T02:25:40;6.43;;;3.85;;
49514;SDS011;35415;47.870;16.058;2023-09-07T02:28:07;5.60;;;4.30;;
49514;SDS011;35415;47.870;16.058;2023-09-07T02:30:34;5.25;;;3.92;;
49514;SDS011;35415;47.870;16.058;2023-09-07T02:33:03;4.82;;;4.32;;
49514;SDS011;35415;47.870;16.058;2023-09-07T02:35:31;6.40;;;4.18;;
49514;SDS011;35415;47.870;16.058;2023-09-07T02:37:58;6.40;;;4.40;;
49514;SDS011;35415;47.870;16.058;2023-09-07T02:40:26;4.88;;;4.10;;
49514;SDS011;35415;47.870;16.058;2023-09-07T02:42:53;6.50;;;4.00;;
49514;SDS011;35415;47.870;16.058;2023-09-07T02:45:20;5.25;;;4.07;;
49514;SDS011;35415;47.870;16.058;2023-09-07T02:47:48;6.30;;;4.15;;
49514;SDS011;35415;47.870;16.058;2023-09-07T02:50:19;4.40;;;4.00;;
49514;SDS011;35415;47.870;16.058;2023-09-07T02:52:47;4.88;;;4.07;;
49514;SDS011;35415;47.870;16.058;2023-09-07T02:55:16;6.07;;;4.28;;
49514;SDS011;35415;47.870;16.058;2023-09-07T02:57:49;5.05;;;4.18;;
49514;SDS011;35415;47.870;16.058;2023-09-07T03:00:18;8.32;;;4.68;;
49514;SDS011;35415;47.870;16.058;2023-09-07T03:02:46;7.85;;;4.20;;
49514;SDS011;35415;47.870;16.058;2023-09-07T03:05:13;7.82;;;4.53;;
49514;SDS011;35415;47.870;16.058;2023-09-07T03:07:44;5.53;;;4.30;;
49514;SDS011;35415;47.870;16.058;2023-09-07T03:10:12;6.47;;;4.23;;
49514;SDS011;35415;47.870;16.058;2023-09-07T03:12:40;6.30;;;4.10;;
49514;SDS011;35415;47.870;16.058;2023-09-07T03:15:07;6.95;;;4.07;;
49514;SDS011;35415;47.870;16.058;2023-09-07T03:17:35;6.10;;;4.50;;
49514;SDS011;35415;47.870;16.058;2023-09-07T03:20:08;6.90;;;4.28;;
49514;SDS011;35415;47.870;16.058;2023-09-07T03:22:40;7.75;;;4.38;;
49514;SDS011;35415;47.870;16.058;2023-09-07T03:25:10;5.45;;;4.40;;
49514;SDS011;35415;47.870;16.058;2023-09-07T03:27:38;5.97;;;3.95;;
49514;SDS011;35415;47.870;16.058;2023-09-07T03:30:05;5.35;;;4.65;;
49514;SDS011;35415;47.870;16.058;2023-09-07T03:32:33;5.43;;;4.32;;
49514;SDS011;35415;47.870;16.058;2023-09-07T03:35:03;5.53;;;4.55;;
49514;SDS011;35415;47.870;16.058;2023-09-07T03:37:34;6.63;;;4.20;;
49514;SDS011;35415;47.870;16.058;2023-09-07T03:40:05;7.78;;;4.40;;
49514;SDS011;35415;47.870;16.058;2023-09-07T03:45:02;5.68;;;3.80;;
49514;SDS011;35415;47.870;16.058;2023-09-07T03:47:31;7.28;;;3.90;;
49514;SDS011;35415;47.870;16.058;2023-09-07T03:49:58;8.45;;;5.32;;
49514;SDS011;35415;47.870;16.058;2023-09-07T03:52:26;7.65;;;4.57;;
49514;SDS011;35415;47.870;16.058;2023-09-07T03:54:53;5.72;;;4.10;;
49514;SDS011;35415;47.870;16.058;2023-09-07T03:57:25;6.55;;;4.38;;
49514;SDS011;35415;47.870;16.058;2023-09-07T03:59:53;6.67;;;4.43;;
49514;SDS011;35415;47.870;16.058;2023-09-07T04:02:21;6.03;;;3.92;;
49514;SDS011;35415;47.870;16.058;2023-09-07T04:04:49;5.78;;;4.03;;
49514;SDS011;35415;47.870;16.058;2023-09-07T04:07:16;7.53;;;4.68;;
49514;SDS011;35415;47.870;16.058;2023-09-07T04:09:44;6.72;;;4.30;;
49514;SDS011;35415;47.870;16.058;2023-09-07T04:12:12;7.05;;;4.30;;
49514;SDS011;35415;47.870;16.058;2023-09-07T04:14:41;7.25;;;4.68;;
49514;SDS011;35415;47.870;16.058;2023-09-07T04:17:09;5.63;;;3.88;;
49514;SDS011;35415;47.870;16.058;2023-09-07T04:19:36;6.43;;;4.15;;
49514;SDS011;35415;47.870;16.058;2023-09-07T04:22:03;6.82;;;4.43;;
49514;SDS011;35415;47.870;16.058;2023-09-07T04:24:34;4.90;;;3.63;;
49514;SDS011;35415;47.870;16.058;2023-09-07T04:27:01;5.43;;;4.15;;
49514;SDS011;35415;47.870;16.058;2023-09-07T04:29:30;9.95;;;4.22;;
49514;SDS011;35415;47.870;16.058;2023-09-07T04:32:00;5.15;;;4.07;;
49514;SDS011;35415;47.870;16.058;2023-09-07T04:34:32;7.60;;;3.83;;
49514;SDS011;35415;47.870;16.058;2023-09-07T04:37:00;6.45;;;4.43;;
49514;SDS011;35415;47.870;16.058;2023-09-07T04:39:30;5.10;;;4.18;;
49514;SDS011;35415;47.870;16.058;2023-09-07T04:41:59;4.53;;;3.72;;
49514;SDS011;35415;47.870;16.058;2023-09-07T04:44:26;6.90;;;3.85;;
49514;SDS011;35415;47.870;16.058;2023-09-07T04:46:54;4.72;;;3.92;;
49514;SDS011;35415;47.870;16.058;2023-09-07T04:55:10;6.63;;;4.38;;
49514;SDS011;35415;47.870;16.058;2023-09-07T04:57:38;5.93;;;4.80;;
49514;SDS011;35415;47.870;16.058;2023-09-07T05:00:11;6.55;;;4.95;;
49514;SDS011;35415;47.870;16.058;2023-09-07T05:02:49;7.25;;;4.63;;
49514;SDS011;35415;47.870;16.058;2023-09-07T05:05:16;6.32;;;4.43;;
49514;SDS011;35415;47.870;16.058;2023-09-07T05:07:43;6.82;;;4.50;;
49514;SDS011;35415;47.870;16.058;2023-09-07T05:10:11;7.40;;;4.60;;
49514;SDS011;35415;47.870;16.058;2023-09-07T05:15:46;6.18;;;4.53;;
49514;SDS011;35415;47.870;16.058;2023-09-07T05:18:14;10.15;;;4.68;;
49514;SDS011;35415;47.870;16.058;2023-09-07T05:20:41;5.28;;;4.15;;
49514;SDS011;35415;47.870;16.058;2023-09-07T05:23:10;4.85;;;3.80;;
49514;SDS011;35415;47.870;16.058;2023-09-07T05:25:44;7.55;;;4.53;;
49514;SDS011;35415;47.870;16.058;2023-09-07T05:28:12;6.47;;;4.18;;
49514;SDS011;35415;47.870;16.058;2023-09-07T05:30:40;7.32;;;4.30;;
49514;SDS011;35415;47.870;16.058;2023-09-07T05:33:07;5.63;;;4.22;;
49514;SDS011;35415;47.870;16.058;2023-09-07T05:35:35;6.45;;;4.60;;
49514;SDS011;35415;47.870;16.058;2023-09-07T05:38:02;5.72;;;4.72;;
49514;SDS011;35415;47.870;16.058;2023-09-07T05:40:33;6.85;;;4.78;;
49514;SDS011;35415;47.870;16.058;2023-09-07T05:43:03;8.68;;;4.25;;
49514;SDS011;35415;47.870;16.058;2023-09-07T05:45:30;5.82;;;4.60;;
49514;SDS011;35415;47.870;16.058;2023-09-07T05:50:42;6.85;;;4.15;;
49514;SDS011;35415;47.870;16.058;2023-09-07T05:53:13;7.00;;;4.18;;
49514;SDS011;35415;47.870;16.058;2023-09-07T05:58:33;9.18;;;4.50;;
49514;SDS011;35415;47.870;16.058;2023-09-07T06:01:00;7.45;;;4.07;;
49514;SDS011;35415;47.870;16.058;2023-09-07T06:03:34;6.13;;;4.28;;
49514;SDS011;35415;47.870;16.058;2023-09-07T06:06:01;10.27;;;4.47;;
49514;SDS011;35415;47.870;16.058;2023-09-07T06:08:29;7.32;;;4.30;;
49514;SDS011;35415;47.870;16.058;2023-09-07T06:10:56;9.75;;;4.28;;
49514;SDS011;35415;47.870;16.058;2023-09-07T06:13:23;10.13;;;5.13;;
49514;SDS011;35415;47.870;16.058;2023-09-07T06:15:52;5.22;;;4.05;;
49514;SDS011;35415;47.870;16.058;2023-09-07T06:18:19;8.23;;;4.88;;
49514;SDS011;35415;47.870;16.058;2023-09-07T06:20:46;10.77;;;4.47;;
49514;SDS011;35415;47.870;16.058;2023-09-07T06:23:15;18.73;;;4.45;;
49514;SDS011;35415;47.870;16.058;2023-09-07T06:25:42;8.13;;;3.80;;
49514;SDS011;35415;47.870;16.058;2023-09-07T06:28:09;9.02;;;4.85;;
49514;SDS011;35415;47.870;16.058;2023-09-07T06:30:36;7.18;;;4.30;;
49514;SDS011;35415;47.870;16.058;2023-09-07T06:33:05;9.75;;;4.68;;
49514;SDS011;35415;47.870;16.058;2023-09-07T06:35:32;7.78;;;4.03;;
49514;SDS011;35415;47.870;16.058;2023-09-07T06:38:00;10.27;;;4.40;;
49514;SDS011;35415;47.870;16.058;2023-09-07T06:40:27;9.02;;;4.68;;
49514;SDS011;35415;47.870;16.058;2023-09-07T06:42:55;7.53;;;4.15;;
49514;SDS011;35415;47.870;16.058;2023-09-07T08:28:51;5.10;;;2.92;;
49514;SDS011;35415;47.870;16.058;2023-09-07T08:31:18;3.67;;;2.60;;
49514;SDS011;35415;47.870;16.058;2023-09-07T08:33:47;6.28;;;2.80;;
49514;SDS011;35415;47.870;16.058;2023-09-07T08:36:15;5.22;;;2.35;;
49514;SDS011;35415;47.870;16.058;2023-09-07T08:38:43;4.13;;;2.80;;
49514;SDS011;35415;47.870;16.058;2023-09-07T08:41:10;6.57;;;3.00;;
49514;SDS011;35415;47.870;16.058;2023-09-07T08:43:42;3.67;;;2.50;;
49514;SDS011;35415;47.870;16.058;2023-09-07T08:46:15;8.32;;;2.50;;
49514;SDS011;35415;47.870;16.058;2023-09-07T08:48:45;5.78;;;2.65;;
49514;SDS011;35415;47.870;16.058;2023-09-07T08:51:14;3.58;;;2.58;;
49514;SDS011;35415;47.870;16.058;2023-09-07T08:53:42;5.13;;;2.83;;
49514;SDS011;35415;47.870;16.058;2023-09-07T08:56:11;3.38;;;2.90;;
49514;SDS011;35415;47.870;16.058;2023-09-07T08:58:39;3.45;;;2.28;;
49514;SDS011;35415;47.870;16.058;2023-09-07T09:01:06;5.57;;;2.40;;
49514;SDS011;35415;47.870;16.058;2023-09-07T09:03:36;2.90;;;2.38;;
49514;SDS011;35415;47.870;16.058;2023-09-07T09:06:03;2.80;;;2.20;;
49514;SDS011;35415;47.870;16.058;2023-09-07T09:08:41;4.32;;;2.42;;
49514;SDS011;35415;47.870;16.058;2023-09-07T09:11:08;2.97;;;2.47;;
49514;SDS011;35415;47.870;16.058;2023-09-07T09:13:36;3.75;;;2.90;;
49514;SDS011;35415;47.870;16.058;2023-09-07T09:16:04;6.65;;;2.60;;
49514;SDS011;35415;47.870;16.058;2023-09-07T09:18:31;4.55;;;2.97;;
49514;SDS011;35415;47.870;16.058;2023-09-07T09:21:00;4.25;;;2.97;;
49514;SDS011;35415;47.870;16.058;2023-09-07T09:23:30;4.82;;;3.30;;
49514;SDS011;35415;47.870;16.058;2023-09-07T09:25:59;4.10;;;2.65;;
49514;SDS011;35415;47.870;16.058;2023-09-07T09:28:28;3.53;;;3.00;;
49514;SDS011;35415;47.870;16.058;2023-09-07T09:30:58;3.58;;;2.50;;
49514;SDS011;35415;47.870;16.058;2023-09-07T09:33:25;3.45;;;2.60;;
49514;SDS011;35415;47.870;16.058;2023-09-07T09:35:54;6.20;;;2.53;;
49514;SDS011;35415;47.870;16.058;2023-09-07T09:38:23;3.90;;;2.42;;
49514;SDS011;35415;47.870;16.058;2023-09-07T09:40:52;6.28;;;2.60;;
49514;SDS011;35415;47.870;16.058;2023-09-07T09:43:20;3.47;;;2.70;;
49514;SDS011;35415;47.870;16.058;2023-09-07T09:45:47;2.72;;;2.50;;
49514;SDS011;35415;47.870;16.058;2023-09-07T09:48:16;4.38;;;3.13;;
49514;SDS011;35415;47.870;16.058;2023-09-07T09:50:46;3.22;;;2.30;;
49514;SDS011;35415;47.870;16.058;2023-09-07T09:53:14;4.57;;;2.25;;
49514;SDS011;35415;47.870;16.058;2023-09-07T09:55:46;5.60;;;2.88;;
49514;SDS011;35415;47.870;16.058;2023-09-07T09:58:13;4.25;;;2.85;;
49514;SDS011;35415;47.870;16.058;2023-09-07T10:00:43;4.45;;;2.80;;
49514;SDS011;35415;47.870;16.058;2023-09-07T10:03:15;4.07;;;2.70;;
49514;SDS011;35415;47.870;16.058;2023-09-07T10:05:48;3.63;;;2.70;;
49514;SDS011;35415;47.870;16.058;2023-09-07T10:08:17;5.65;;;2.92;;
49514;SDS011;35415;47.870;16.058;2023-09-07T10:10:47;4.15;;;3.05;;
49514;SDS011;35415;47.870;16.058;2023-09-07T10:13:16;3.55;;;3.25;;
49514;SDS011;35415;47.870;16.058;2023-09-07T10:15:59;4.90;;;3.05;;
49514;SDS011;35415;47.870;16.058;2023-09-07T10:18:32;4.88;;;2.80;;
49514;SDS011;35415;47.870;16.058;2023-09-07T10:21:01;4.68;;;3.20;;
49514;SDS011;35415;47.870;16.058;2023-09-07T10:23:35;6.32;;;3.20;;
49514;SDS011;35415;47.870;16.058;2023-09-07T10:26:10;6.13;;;2.50;;
49514;SDS011;35415;47.870;16.058;2023-09-07T10:28:38;3.47;;;2.78;;
49514;SDS011;35415;47.870;16.058;2023-09-07T10:31:06;4.93;;;2.55;;
49514;SDS011;35415;47.870;16.058;2023-09-07T10:33:39;3.28;;;2.70;;
49514;SDS011;35415;47.870;16.058;2023-09-07T10:36:06;3.15;;;2.50;;
49514;SDS011;35415;47.870;16.058;2023-09-07T10:38:33;4.65;;;2.33;;
49514;SDS011;35415;47.870;16.058;2023-09-07T10:41:02;3.55;;;2.08;;
49514;SDS011;35415;47.870;16.058;2023-09-07T10:43:32;3.42;;;2.45;;
49514;SDS011;35415;47.870;16.058;2023-09-07T10:46:00;2.60;;;2.40;;
49514;SDS011;35415;47.870;16.058;2023-09-07T10:48:29;3.05;;;1.90;;
49514;SDS011;35415;47.870;16.058;2023-09-07T10:50:57;4.68;;;2.70;;
49514;SDS011;35415;47.870;16.058;2023-09-07T10:53:25;3.25;;;2.38;;
49514;SDS011;35415;47.870;16.058;2023-09-07T10:55:53;3.95;;;2.38;;
49514;SDS011;35415;47.870;16.058;2023-09-07T10:58:24;3.38;;;2.65;;
49514;SDS011;35415;47.870;16.058;2023-09-07T11:00:53;3.33;;;2.08;;
49514;SDS011;35415;47.870;16.058;2023-09-07T11:03:20;4.57;;;2.60;;
49514;SDS011;35415;47.870;16.058;2023-09-07T11:05:48;2.58;;;2.30;;
49514;SDS011;35415;47.870;16.058;2023-09-07T11:08:16;2.85;;;2.55;;
49514;SDS011;35415;47.870;16.058;2023-09-07T11:10:44;4.43;;;2.38;;
49514;SDS011;35415;47.870;16.058;2023-09-07T11:13:11;3.28;;;2.53;;
49514;SDS011;35415;47.870;16.058;2023-09-07T11:15:38;2.78;;;2.38;;
49514;SDS011;35415;47.870;16.058;2023-09-07T11:18:08;5.38;;;2.30;;
49514;SDS011;35415;47.870;16.058;2023-09-07T11:20:35;2.38;;;2.10;;
49514;SDS011;35415;47.870;16.058;2023-09-07T11:23:04;3.92;;;2.42;;
49514;SDS011;35415;47.870;16.058;2023-09-07T11:25:35;5.47;;;2.35;;
49514;SDS011;35415;47.870;16.058;2023-09-07T11:28:03;4.17;;;2.20;;
49514;SDS011;35415;47.870;16.058;2023-09-07T11:30:31;2.95;;;2.15;;
49514;SDS011;35415;47.870;16.058;2023-09-07T11:33:02;5.60;;;2.45;;
49514;SDS011;35415;47.870;16.058;2023-09-07T11:35:32;3.10;;;2.50;;
49514;SDS011;35415;47.870;16.058;2023-09-07T11:37:59;3.55;;;2.58;;
49514;SDS011;35415;47.870;16.058;2023-09-07T11:40:29;3.13;;;2.30;;
49514;SDS011;35415;47.870;16.058;2023-09-07T11:42:56;3.72;;;2.50;;
49514;SDS011;35415;47.870;16.058;2023-09-07T11:45:23;3.00;;;2.20;;
49514;SDS011;35415;47.870;16.058;2023-09-07T11:47:52;2.72;;;2.20;;
49514;SDS011;35415;47.870;16.058;2023-09-07T11:50:19;5.30;;;2.80;;
49514;SDS011;35415;47.870;16.058;2023-09-07T11:52:51;3.60;;;2.20;;
49514;SDS011;35415;47.870;16.058;2023-09-07T11:55:18;3.60;;;2.30;;
49514;SDS011;35415;47.870;16.058;2023-09-07T11:57:45;3.28;;;2.00;;
49514;SDS011;35415;47.870;16.058;2023-09-07T12:00:13;2.75;;;2.45;;
49514;SDS011;35415;47.870;16.058;2023-09-07T12:02:40;3.38;;;2.50;;
49514;SDS011;35415;47.870;16.058;2023-09-07T12:05:10;2.22;;;2.00;;
49514;SDS011;35415;47.870;16.058;2023-09-07T12:07:40;5.97;;;2.55;;
49514;SDS011;35415;47.870;16.058;2023-09-07T12:10:12;4.05;;;2.28;;
49514;SDS011;35415;47.870;16.058;2023-09-07T12:12:39;3.15;;;2.80;;
49514;SDS011;35415;47.870;16.058;2023-09-07T12:15:11;2.45;;;2.25;;
49514;SDS011;35415;47.870;16.058;2023-09-07T12:17:38;3.70;;;2.17;;
49514;SDS011;35415;47.870;16.058;2023-09-07T12:20:05;3.80;;;2.53;;
49514;SDS011;35415;47.870;16.058;2023-09-07T12:22:42;2.95;;;2.20;;
49514;SDS011;35415;47.870;16.058;2023-09-07T12:25:12;3.00;;;2.67;;
49514;SDS011;35415;47.870;16.058;2023-09-07T12:27:39;2.67;;;2.00;;
49514;SDS011;35415;47.870;16.058;2023-09-07T12:30:10;2.50;;;2.17;;
49514;SDS011;35415;47.870;16.058;2023-09-07T12:32:38;2.63;;;2.30;;
49514;SDS011;35415;47.870;16.058;2023-09-07T12:35:06;5.03;;;2.75;;
49514;SDS011;35415;47.870;16.058;2023-09-07T12:37:37;3.17;;;2.63;;
49514;SDS011;35415;47.870;16.058;2023-09-07T12:40:04;2.55;;;2.30;;
49514;SDS011;35415;47.870;16.058;2023-09-07T12:42:39;3.38;;;2.10;;
49514;SDS011;35415;47.870;16.058;2023-09-07T12:45:11;2.38;;;2.17;;
49514;SDS011;35415;47.870;16.058;2023-09-07T12:47:41;3.67;;;2.00;;
49514;SDS011;35415;47.870;16.058;2023-09-07T12:50:10;4.22;;;2.40;;
49514;SDS011;35415;47.870;16.058;2023-09-07T12:52:38;3.28;;;2.40;;
49514;SDS011;35415;47.870;16.058;2023-09-07T12:55:05;3.60;;;2.53;;
49514;SDS011;35415;47.870;16.058;2023-09-07T12:57:38;3.65;;;2.25;;
49514;SDS011;35415;47.870;16.058;2023-09-07T13:00:11;3.50;;;2.45;;
49514;SDS011;35415;47.870;16.058;2023-09-07T13:02:39;2.33;;;2.15;;
49514;SDS011;35415;47.870;16.058;2023-09-07T13:05:10;2.40;;;2.20;;
49514;SDS011;35415;47.870;16.058;2023-09-07T13:07:38;3.35;;;2.53;;
49514;SDS011;35415;47.870;16.058;2023-09-07T13:10:06;2.83;;;2.40;;
49514;SDS011;35415;47.870;16.058;2023-09-07T13:12:38;3.13;;;2.67;;
49514;SDS011;35415;47.870;16.058;2023-09-07T13:15:06;7.28;;;2.58;;
49514;SDS011;35415;47.870;16.058;2023-09-07T13:20:04;3.47;;;2.30;;
49514;SDS011;35415;47.870;16.058;2023-09-07T13:22:35;7.72;;;2.83;;
49514;SDS011;35415;47.870;16.058;2023-09-07T13:25:03;3.92;;;2.30;;
49514;SDS011;35415;47.870;16.058;2023-09-07T13:27:36;3.15;;;2.30;;
49514;SDS011;35415;47.870;16.058;2023-09-07T13:30:06;3.30;;;2.75;;
49514;SDS011;35415;47.870;16.058;2023-09-07T13:32:37;3.65;;;2.38;;
49514;SDS011;35415;47.870;16.058;2023-09-07T13:35:04;2.42;;;2.22;;
49514;SDS011;35415;47.870;16.058;2023-09-07T13:37:35;2.92;;;2.55;;
49514;SDS011;35415;47.870;16.058;2023-09-07T13:40:03;4.15;;;2.90;;
49514;SDS011;35415;47.870;16.058;2023-09-07T13:42:35;4.53;;;2.28;;
49514;SDS011;35415;47.870;16.058;2023-09-07T13:45:06;2.55;;;2.22;;
49514;SDS011;35415;47.870;16.058;2023-09-07T13:47:37;3.55;;;2.35;;
49514;SDS011;35415;47.870;16.058;2023-09-07T13:50:05;5.60;;;2.40;;
49514;SDS011;35415;47.870;16.058;2023-09-07T13:52:37;3.25;;;2.55;;
49514;SDS011;35415;47.870;16.058;2023-09-07T13:55:04;2.72;;;2.45;;
49514;SDS011;35415;47.870;16.058;2023-09-07T13:57:35;2.50;;;2.30;;
49514;SDS011;35415;47.870;16.058;2023-09-07T14:00:03;5.53;;;2.50;;
49514;SDS011;35415;47.870;16.058;2023-09-07T14:02:32;3.65;;;2.53;;
49514;SDS011;35415;47.870;16.058;2023-09-07T14:04:59;4.45;;;3.15;;
49514;SDS011;35415;47.870;16.058;2023-09-07T14:07:31;3.67;;;2.40;;
49514;SDS011;35415;47.870;16.058;2023-09-07T14:09:58;4.93;;;2.47;;
49514;SDS011;35415;47.870;16.058;2023-09-07T14:12:30;3.58;;;2.17;;
49514;SDS011;35415;47.870;16.058;2023-09-07T14:14:57;3.58;;;2.40;;
49514;SDS011;35415;47.870;16.058;2023-09-07T14:17:25;3.97;;;2.50;;
49514;SDS011;35415;47.870;16.058;2023-09-07T14:19:56;4.88;;;2.92;;
49514;SDS011;35415;47.870;16.058;2023-09-07T14:22:23;4.07;;;2.67;;
49514;SDS011;35415;47.870;16.058;2023-09-07T14:24:50;2.72;;;2.40;;
49514;SDS011;35415;47.870;16.058;2023-09-07T14:27:19;2.75;;;2.55;;
49514;SDS011;35415;47.870;16.058;2023-09-07T14:29:46;4.97;;;3.42;;
49514;SDS011;35415;47.870;16.058;2023-09-07T14:32:16;3.65;;;2.47;;
49514;SDS011;35415;47.870;16.058;2023-09-07T14:34:43;7.53;;;3.05;;
49514;SDS011;35415;47.870;16.058;2023-09-07T14:37:11;2.55;;;2.33;;
49514;SDS011;35415;47.870;16.058;2023-09-07T14:39:45;2.97;;;2.67;;
49514;SDS011;35415;47.870;16.058;2023-09-07T14:42:15;3.03;;;2.50;;
49514;SDS011;35415;47.870;16.058;2023-09-07T14:44:44;5.82;;;2.30;;
49514;SDS011;35415;47.870;16.058;2023-09-07T14:47:19;3.40;;;2.83;;
49514;SDS011;35415;47.870;16.058;2023-09-07T14:49:50;7.00;;;2.50;;
49514;SDS011;35415;47.870;16.058;2023-09-07T14:52:28;2.70;;;2.20;;
49514;SDS011;35415;47.870;16.058;2023-09-07T14:54:55;4.32;;;2.55;;
49514;SDS011;35415;47.870;16.058;2023-09-07T14:57:22;4.80;;;2.95;;
49514;SDS011;35415;47.870;16.058;2023-09-07T14:59:49;3.63;;;2.40;;
49514;SDS011;35415;47.870;16.058;2023-09-07T15:02:16;2.67;;;2.40;;
49514;SDS011;35415;47.870;16.058;2023-09-07T15:04:44;4.57;;;2.92;;
49514;SDS011;35415;47.870;16.058;2023-09-07T15:07:12;3.85;;;2.47;;
49514;SDS011;35415;47.870;16.058;2023-09-07T15:09:41;4.20;;;2.70;;
49514;SDS011;35415;47.870;16.058;2023-09-07T15:12:08;4.57;;;2.67;;
49514;SDS011;35415;47.870;16.058;2023-09-07T15:14:36;3.55;;;2.72;;
49514;SDS011;35415;47.870;16.058;2023-09-07T15:17:03;4.55;;;2.83;;
49514;SDS011;35415;47.870;16.058;2023-09-07T15:19:30;3.17;;;2.53;;
49514;SDS011;35415;47.870;16.058;2023-09-07T15:21:59;3.72;;;2.80;;
49514;SDS011;35415;47.870;16.058;2023-09-07T15:24:29;4.13;;;2.65;;
49514;SDS011;35415;47.870;16.058;2023-09-07T15:26:58;3.63;;;2.72;;
49514;SDS011;35415;47.870;16.058;2023-09-07T15:29:25;6.10;;;2.70;;
49514;SDS011;35415;47.870;16.058;2023-09-07T15:31:52;6.22;;;3.05;;
49514;SDS011;35415;47.870;16.058;2023-09-07T15:34:19;2.85;;;2.50;;
49514;SDS011;35415;47.870;16.058;2023-09-07T15:36:46;3.47;;;2.80;;
49514;SDS011;35415;47.870;16.058;2023-09-07T15:39:13;5.60;;;2.85;;
49514;SDS011;35415;47.870;16.058;2023-09-07T15:41:40;5.68;;;3.05;;
49514;SDS011;35415;47.870;16.058;2023-09-07T15:44:09;4.20;;;3.17;;
49514;SDS011;35415;47.870;16.058;2023-09-07T15:46:36;4.43;;;2.65;;
49514;SDS011;35415;47.870;16.058;2023-09-07T15:49:05;3.97;;;2.42;;
49514;SDS011;35415;47.870;16.058;2023-09-07T15:51:32;2.72;;;2.53;;
49514;SDS011;35415;47.870;16.058;2023-09-07T15:54:01;3.08;;;2.70;;
49514;SDS011;35415;47.870;16.058;2023-09-07T15:56:30;3.67;;;2.28;;
49514;SDS011;35415;47.870;16.058;2023-09-07T15:58:57;3.33;;;2.47;;
49514;SDS011;35415;47.870;16.058;2023-09-07T16:01:26;2.67;;;2.47;;
49514;SDS011;35415;47.870;16.058;2023-09-07T16:03:53;5.65;;;2.50;;
49514;SDS011;35415;47.870;16.058;2023-09-07T16:06:20;3.92;;;2.45;;
49514;SDS011;35415;47.870;16.058;2023-09-07T16:21:12;6.88;;;2.58;;
49514;SDS011;35415;47.870;16.058;2023-09-07T16:38:35;4.97;;;3.63;;
49514;SDS011;35415;47.870;16.058;2023-09-07T16:41:04;3.40;;;2.92;;
49514;SDS011;35415;47.870;16.058;2023-09-07T16:43:31;3.80;;;3.17;;
49514;SDS011;35415;47.870;16.058;2023-09-07T16:45:59;6.18;;;3.72;;
49514;SDS011;35415;47.870;16.058;2023-09-07T16:48:27;3.83;;;3.20;;
49514;SDS011;35415;47.870;16.058;2023-09-07T16:50:54;5.22;;;4.00;;
49514;SDS011;35415;47.870;16.058;2023-09-07T16:53:21;8.13;;;4.82;;
49514;SDS011;35415;47.870;16.058;2023-09-07T16:55:49;8.63;;;5.68;;
49514;SDS011;35415;47.870;16.058;2023-09-07T16:58:16;7.90;;;5.28;;
49514;SDS011;35415;47.870;16.058;2023-09-07T17:00:44;8.88;;;5.30;;
49514;SDS011;35415;47.870;16.058;2023-09-07T17:03:12;6.25;;;4.35;;
49514;SDS011;35415;47.870;16.058;2023-09-07T17:05:39;5.07;;;3.83;;
49514;SDS011;35415;47.870;16.058;2023-09-07T17:08:06;5.88;;;3.97;;
49514;SDS011;35415;47.870;16.058;2023-09-07T17:10:34;8.60;;;4.30;;
49514;SDS011;35415;47.870;16.058;2023-09-07T17:13:03;5.15;;;4.10;;